sensor_id;sensor_type;location;lat;lon;timestamp;pressure;altitude;pressure_sealevel;temperature;humidity
64713;BME280;51140;45.340;5.980;2023-02-11T00:01:26;100204.22;;;-1.96;100.00
64713;BME280;51140;45.340;5.980;2023-02-11T00:03:53;100201.50;;;-2.01;100.00
64713;BME280;51140;45.340;5.980;2023-02-11T00:06:18;100202.44;;;-1.99;100.00
64713;BME280;51140;45.340;5.980;2023-02-11T00:08:44;100206.03;;;-1.92;100.00
64713;BME280;51140;45.340;5.980;2023-02-11T00:11:14;100202.72;;;-1.90;100.00
64713;BME280;51140;45.340;5.980;2023-02-11T00:13:40;100206.22;;;-1.86;100.00
64713;BME280;51140;45.340;5.980;2023-02-11T00:16:11;100202.91;;;-1.83;100.00
64713;BME280;51140;45.340;5.980;2023-02-11T00:18:37;100195.25;;;-1.83;100.00
64713;BME280;51140;45.340;5.980;2023-02-11T00:21:16;100192.31;;;-1.96;100.00
64713;BME280;51140;45.340;5.980;2023-02-11T00:23:43;100200.06;;;-1.93;100.00
64713;BME280;51140;45.340;5.980;2023-02-11T00:26:17;100205.00;;;-1.99;100.00
64713;BME280;51140;45.340;5.980;2023-02-11T00:28:44;100205.00;;;-1.99;100.00
64713;BME280;51140;45.340;5.980;2023-02-11T00:31:10;100199.06;;;-1.98;100.00
64713;BME280;51140;45.340;5.980;2023-02-11T00:33:35;100213.56;;;-1.97;100.00
64713;BME280;51140;45.340;5.980;2023-02-11T00:36:06;100215.34;;;-1.94;100.00
64713;BME280;51140;45.340;5.980;2023-02-11T00:38:31;100207.97;;;-1.85;100.00
64713;BME280;51140;45.340;5.980;2023-02-11T00:40:57;100202.09;;;-1.82;100.00
64713;BME280;51140;45.340;5.980;2023-02-11T00:43:23;100189.41;;;-1.79;100.00
64713;BME280;51140;45.340;5.980;2023-02-11T00:45:48;100191.94;;;-1.79;100.00
64713;BME280;51140;45.340;5.980;2023-02-11T00:48:14;100175.81;;;-1.78;100.00
64713;BME280;51140;45.340;5.980;2023-02-11T00:50:39;100177.50;;;-1.79;100.00
64713;BME280;51140;45.340;5.980;2023-02-11T00:53:05;100167.66;;;-1.95;100.00
64713;BME280;51140;45.340;5.980;2023-02-11T00:55:30;100169.41;;;-1.93;100.00
64713;BME280;51140;45.340;5.980;2023-02-11T00:57:55;100168.03;;;-2.10;100.00
64713;BME280;51140;45.340;5.980;2023-02-11T01:00:23;100170.19;;;-2.22;100.00
64713;BME280;51140;45.340;5.980;2023-02-11T01:02:48;100179.81;;;-2.13;100.00
64713;BME280;51140;45.340;5.980;2023-02-11T01:05:13;100190.81;;;-2.16;100.00
64713;BME280;51140;45.340;5.980;2023-02-11T01:07:39;100196.72;;;-2.17;100.00
64713;BME280;51140;45.340;5.980;2023-02-11T01:10:04;100206.41;;;-2.07;100.00
64713;BME280;51140;45.340;5.980;2023-02-11T01:12:30;100207.38;;;-2.03;100.00
64713;BME280;51140;45.340;5.980;2023-02-11T01:14:55;100210.59;;;-2.09;100.00
64713;BME280;51140;45.340;5.980;2023-02-11T01:17:21;100207.19;;;-2.09;100.00
64713;BME280;51140;45.340;5.980;2023-02-11T01:19:46;100204.41;;;-2.17;100.00
64713;BME280;51140;45.340;5.980;2023-02-11T01:22:11;100206.94;;;-2.17;100.00
64713;BME280;51140;45.340;5.980;2023-02-11T01:24:37;100206.28;;;-2.11;100.00
64713;BME280;51140;45.340;5.980;2023-02-11T01:27:02;100191.91;;;-2.08;100.00
64713;BME280;51140;45.340;5.980;2023-02-11T01:29:28;100203.09;;;-2.04;100.00
64713;BME280;51140;45.340;5.980;2023-02-11T01:31:53;100206.38;;;-2.08;100.00
64713;BME280;51140;45.340;5.980;2023-02-11T01:34:18;100196.72;;;-2.17;100.00
64713;BME280;51140;45.340;5.980;2023-02-11T01:36:44;100210.50;;;-2.12;100.00
64713;BME280;51140;45.340;5.980;2023-02-11T01:39:09;100209.69;;;-2.11;100.00
64713;BME280;51140;45.340;5.980;2023-02-11T01:41:35;100210.28;;;-2.19;100.00
64713;BME280;51140;45.340;5.980;2023-02-11T01:44:30;100203.81;;;-2.35;100.00
64713;BME280;51140;45.340;5.980;2023-02-11T01:46:57;100218.50;;;-2.28;100.00
64713;BME280;51140;45.340;5.980;2023-02-11T01:49:31;100223.03;;;-2.19;100.00
64713;BME280;51140;45.340;5.980;2023-02-11T01:52:07;100219.63;;;-2.20;100.00
64713;BME280;51140;45.340;5.980;2023-02-11T01:54:38;100220.44;;;-2.21;100.00
64713;BME280;51140;45.340;5.980;2023-02-11T01:57:25;100214.06;;;-2.34;100.00
64713;BME280;51140;45.340;5.980;2023-02-11T02:00:00;100209.88;;;-2.32;100.00
64713;BME280;51140;45.340;5.980;2023-02-11T02:02:36;100223.50;;;-2.31;100.00
64713;BME280;51140;45.340;5.980;2023-02-11T02:08:01;100218.41;;;-2.31;100.00
64713;BME280;51140;45.340;5.980;2023-02-11T02:10:27;100220.59;;;-2.42;100.00
64713;BME280;51140;45.340;5.980;2023-02-11T02:12:53;100222.59;;;-2.33;100.00
64713;BME280;51140;45.340;5.980;2023-02-11T02:15:31;100214.94;;;-2.33;100.00
64713;BME280;51140;45.340;5.980;2023-02-11T02:18:01;100209.31;;;-2.48;100.00
64713;BME280;51140;45.340;5.980;2023-02-11T02:25:47;100223.75;;;-2.49;100.00
64713;BME280;51140;45.340;5.980;2023-02-11T02:29:00;100215.31;;;-2.46;100.00
64713;BME280;51140;45.340;5.980;2023-02-11T02:31:32;100219.56;;;-2.47;100.00
64713;BME280;51140;45.340;5.980;2023-02-11T02:34:08;100202.84;;;-2.64;100.00
64713;BME280;51140;45.340;5.980;2023-02-11T02:36:45;100196.66;;;-2.71;100.00
64713;BME280;51140;45.340;5.980;2023-02-11T02:39:32;100193.72;;;-2.81;100.00
64713;BME280;51140;45.340;5.980;2023-02-11T02:42:00;100203.34;;;-2.74;100.00
64713;BME280;51140;45.340;5.980;2023-02-11T02:44:27;100216.63;;;-2.83;100.00
64713;BME280;51140;45.340;5.980;2023-02-11T02:46:52;100223.69;;;-3.00;100.00
64713;BME280;51140;45.340;5.980;2023-02-11T02:49:17;100214.69;;;-3.14;100.00
64713;BME280;51140;45.340;5.980;2023-02-11T02:59:43;100239.53;;;-3.08;100.00
64713;BME280;51140;45.340;5.980;2023-02-11T03:02:27;100244.03;;;-3.01;100.00
64713;BME280;51140;45.340;5.980;2023-02-11T03:05:01;100244.31;;;-3.18;100.00
64713;BME280;51140;45.340;5.980;2023-02-11T03:07:43;100242.91;;;-3.32;100.00
64713;BME280;51140;45.340;5.980;2023-02-11T03:10:16;100248.94;;;-3.30;100.00
64713;BME280;51140;45.340;5.980;2023-02-11T03:12:45;100252.28;;;-3.31;100.00
64713;BME280;51140;45.340;5.980;2023-02-11T03:15:12;100274.25;;;-3.12;100.00
64713;BME280;51140;45.340;5.980;2023-02-11T03:17:41;100278.59;;;-3.09;100.00
64713;BME280;51140;45.340;5.980;2023-02-11T03:20:12;100287.22;;;-3.06;100.00
64713;BME280;51140;45.340;5.980;2023-02-11T03:23:04;100285.66;;;-3.02;100.00
64713;BME280;51140;45.340;5.980;2023-02-11T03:25:38;100302.69;;;-3.01;100.00
64713;BME280;51140;45.340;5.980;2023-02-11T03:28:14;100303.00;;;-2.92;100.00
64713;BME280;51140;45.340;5.980;2023-02-11T03:30:48;100290.47;;;-2.86;100.00
64713;BME280;51140;45.340;5.980;2023-02-11T03:33:36;100283.53;;;-2.90;100.00
64713;BME280;51140;45.340;5.980;2023-02-11T03:36:07;100274.47;;;-3.06;100.00
64713;BME280;51140;45.340;5.980;2023-02-11T03:38:37;100276.75;;;-3.13;100.00
64713;BME280;51140;45.340;5.980;2023-02-11T03:41:06;100275.22;;;-3.08;100.00
64713;BME280;51140;45.340;5.980;2023-02-11T03:43:37;100277.06;;;-3.04;100.00
64713;BME280;51140;45.340;5.980;2023-02-11T03:46:05;100279.84;;;-2.98;100.00
64713;BME280;51140;45.340;5.980;2023-02-11T03:48:41;100290.84;;;-2.99;100.00
64713;BME280;51140;45.340;5.980;2023-02-11T03:51:09;100284.34;;;-3.15;100.00
64713;BME280;51140;45.340;5.980;2023-02-11T03:53:37;100284.03;;;-3.23;100.00
64713;BME280;51140;45.340;5.980;2023-02-11T03:56:08;100287.66;;;-3.18;100.00
64713;BME280;51140;45.340;5.980;2023-02-11T03:58:35;100277.91;;;-3.28;100.00
64713;BME280;51140;45.340;5.980;2023-02-11T04:01:00;100279.78;;;-3.22;100.00
64713;BME280;51140;45.340;5.980;2023-02-11T04:03:27;100292.00;;;-3.15;100.00
64713;BME280;51140;45.340;5.980;2023-02-11T04:05:52;100298.06;;;-3.11;100.00
64713;BME280;51140;45.340;5.980;2023-02-11T04:08:19;100311.69;;;-3.11;100.00
64713;BME280;51140;45.340;5.980;2023-02-11T04:10:44;100319.31;;;-3.11;100.00
64713;BME280;51140;45.340;5.980;2023-02-11T04:13:10;100319.03;;;-3.19;100.00
64713;BME280;51140;45.340;5.980;2023-02-11T04:15:36;100318.19;;;-3.19;100.00
64713;BME280;51140;45.340;5.980;2023-02-11T04:18:01;100312.38;;;-3.15;100.00
64713;BME280;51140;45.340;5.980;2023-02-11T04:20:28;100325.41;;;-3.07;100.00
64713;BME280;51140;45.340;5.980;2023-02-11T04:22:53;100319.59;;;-3.03;100.00
64713;BME280;51140;45.340;5.980;2023-02-11T04:25:19;100314.22;;;-3.11;100.00
64713;BME280;51140;45.340;5.980;2023-02-11T04:27:44;100301.44;;;-3.12;100.00
64713;BME280;51140;45.340;5.980;2023-02-11T04:30:10;100311.78;;;-3.08;100.00
64713;BME280;51140;45.340;5.980;2023-02-11T04:32:36;100299.97;;;-3.06;100.00
64713;BME280;51140;45.340;5.980;2023-02-11T04:35:01;100295.84;;;-3.02;100.00
64713;BME280;51140;45.340;5.980;2023-02-11T04:37:27;100281.09;;;-3.11;100.00
64713;BME280;51140;45.340;5.980;2023-02-11T04:39:53;100281.38;;;-3.26;100.00
64713;BME280;51140;45.340;5.980;2023-02-11T04:42:18;100292.75;;;-3.18;100.00
64713;BME280;51140;45.340;5.980;2023-02-11T04:44:43;100278.94;;;-3.23;100.00
64713;BME280;51140;45.340;5.980;2023-02-11T04:47:09;100284.84;;;-3.24;100.00
64713;BME280;51140;45.340;5.980;2023-02-11T04:49:36;100283.22;;;-3.22;100.00
64713;BME280;51140;45.340;5.980;2023-02-11T04:52:02;100285.97;;;-3.17;100.00
64713;BME280;51140;45.340;5.980;2023-02-11T04:54:27;100293.50;;;-3.20;100.00
64713;BME280;51140;45.340;5.980;2023-02-11T04:56:53;100286.47;;;-3.26;100.00
64713;BME280;51140;45.340;5.980;2023-02-11T04:59:18;100291.69;;;-3.23;100.00
64713;BME280;51140;45.340;5.980;2023-02-11T05:01:43;100299.97;;;-3.28;100.00
64713;BME280;51140;45.340;5.980;2023-02-11T05:04:09;100286.88;;;-3.37;100.00
64713;BME280;51140;45.340;5.980;2023-02-11T05:06:34;100294.59;;;-3.36;100.00
64713;BME280;51140;45.340;5.980;2023-02-11T05:09:00;100296.84;;;-3.43;100.00
64713;BME280;51140;45.340;5.980;2023-02-11T05:11:25;100309.06;;;-3.35;100.00
64713;BME280;51140;45.340;5.980;2023-02-11T05:13:51;100311.84;;;-3.29;100.00
64713;BME280;51140;45.340;5.980;2023-02-11T05:16:17;100324.63;;;-3.27;100.00
64713;BME280;51140;45.340;5.980;2023-02-11T05:18:43;100311.56;;;-3.36;100.00
64713;BME280;51140;45.340;5.980;2023-02-11T05:21:14;100319.19;;;-3.36;100.00
64713;BME280;51140;45.340;5.980;2023-02-11T05:23:41;100317.69;;;-3.31;100.00
64713;BME280;51140;45.340;5.980;2023-02-11T05:26:07;100324.69;;;-3.26;100.00
64713;BME280;51140;45.340;5.980;2023-02-11T05:28:33;100327.19;;;-3.27;100.00
64713;BME280;51140;45.340;5.980;2023-02-11T05:30:59;100332.97;;;-3.31;100.00
64713;BME280;51140;45.340;5.980;2023-02-11T05:33:25;100335.63;;;-3.28;100.00
64713;BME280;51140;45.340;5.980;2023-02-11T05:35:50;100319.78;;;-3.43;100.00
64713;BME280;51140;45.340;5.980;2023-02-11T05:38:16;100327.47;;;-3.42;100.00
64713;BME280;51140;45.340;5.980;2023-02-11T05:40:41;100324.34;;;-3.35;100.00
64713;BME280;51140;45.340;5.980;2023-02-11T05:43:07;100321.00;;;-3.34;100.00
64713;BME280;51140;45.340;5.980;2023-02-11T05:45:33;100307.25;;;-3.60;100.00
64713;BME280;51140;45.340;5.980;2023-02-11T05:47:58;100304.38;;;-3.67;100.00
64713;BME280;51140;45.340;5.980;2023-02-11T05:50:24;100305.81;;;-3.74;100.00
64713;BME280;51140;45.340;5.980;2023-02-11T05:52:49;100298.88;;;-3.78;100.00
64713;BME280;51140;45.340;5.980;2023-02-11T05:55:15;100300.13;;;-3.89;100.00
64713;BME280;51140;45.340;5.980;2023-02-11T05:57:40;100295.34;;;-3.82;100.00
64713;BME280;51140;45.340;5.980;2023-02-11T06:00:07;100300.63;;;-3.77;100.00
64713;BME280;51140;45.340;5.980;2023-02-11T06:02:32;100304.97;;;-3.74;100.00
64713;BME280;51140;45.340;5.980;2023-02-11T06:04:58;100309.19;;;-3.75;100.00
64713;BME280;51140;45.340;5.980;2023-02-11T06:07:24;100310.16;;;-3.71;100.00
64713;BME280;51140;45.340;5.980;2023-02-11T06:09:49;100313.66;;;-3.69;100.00
64713;BME280;51140;45.340;5.980;2023-02-11T06:12:15;100303.66;;;-3.86;100.00
64713;BME280;51140;45.340;5.980;2023-02-11T06:14:40;100314.84;;;-3.82;100.00
64713;BME280;51140;45.340;5.980;2023-02-11T06:17:06;100315.59;;;-3.85;100.00
64713;BME280;51140;45.340;5.980;2023-02-11T06:19:31;100307.72;;;-3.91;100.00
64713;BME280;51140;45.340;5.980;2023-02-11T06:21:57;100312.28;;;-3.82;100.00
64713;BME280;51140;45.340;5.980;2023-02-11T06:24:22;100307.63;;;-3.71;100.00
64713;BME280;51140;45.340;5.980;2023-02-11T06:26:48;100317.13;;;-3.67;100.00
64713;BME280;51140;45.340;5.980;2023-02-11T06:29:13;100315.63;;;-3.62;100.00
64713;BME280;51140;45.340;5.980;2023-02-11T06:31:39;100308.44;;;-3.72;100.00
64713;BME280;51140;45.340;5.980;2023-02-11T06:34:06;100299.44;;;-3.85;100.00
64713;BME280;51140;45.340;5.980;2023-02-11T06:36:31;100304.25;;;-3.70;100.00
64713;BME280;51140;45.340;5.980;2023-02-11T06:38:57;100316.31;;;-3.66;100.00
64713;BME280;51140;45.340;5.980;2023-02-11T06:41:22;100317.75;;;-3.73;100.00
64713;BME280;51140;45.340;5.980;2023-02-11T06:43:48;100323.84;;;-3.69;100.00
64713;BME280;51140;45.340;5.980;2023-02-11T06:46:13;100335.41;;;-3.57;100.00
64713;BME280;51140;45.340;5.980;2023-02-11T06:48:39;100331.28;;;-3.53;100.00
64713;BME280;51140;45.340;5.980;2023-02-11T06:51:07;100333.84;;;-3.53;100.00
64713;BME280;51140;45.340;5.980;2023-02-11T06:53:35;100331.59;;;-3.66;100.00
64713;BME280;51140;45.340;5.980;2023-02-11T06:56:02;100319.44;;;-3.73;100.00
64713;BME280;51140;45.340;5.980;2023-02-11T06:58:28;100333.16;;;-3.70;100.00
64713;BME280;51140;45.340;5.980;2023-02-11T07:00:54;100325.91;;;-3.82;100.00
64713;BME280;51140;45.340;5.980;2023-02-11T07:03:19;100311.94;;;-3.91;100.00
64713;BME280;51140;45.340;5.980;2023-02-11T07:05:44;100304.66;;;-3.82;100.00
64713;BME280;51140;45.340;5.980;2023-02-11T07:08:10;100316.63;;;-3.80;100.00
64713;BME280;51140;45.340;5.980;2023-02-11T07:10:35;100317.50;;;-3.79;100.00
64713;BME280;51140;45.340;5.980;2023-02-11T07:13:01;100320.00;;;-3.81;100.00
64713;BME280;51140;45.340;5.980;2023-02-11T07:15:26;100314.91;;;-3.81;100.00
64713;BME280;51140;45.340;5.980;2023-02-11T07:17:51;100310.75;;;-3.79;100.00
64713;BME280;51140;45.340;5.980;2023-02-11T07:20:17;100311.72;;;-3.75;100.00
64713;BME280;51140;45.340;5.980;2023-02-11T07:22:42;100312.03;;;-3.67;100.00
64713;BME280;51140;45.340;5.980;2023-02-11T07:25:08;100316.63;;;-3.59;100.00
64713;BME280;51140;45.340;5.980;2023-02-11T07:27:33;100326.19;;;-3.53;100.00
64713;BME280;51140;45.340;5.980;2023-02-11T07:29:58;100321.03;;;-3.55;100.00
64713;BME280;51140;45.340;5.980;2023-02-11T07:32:24;100333.03;;;-3.52;100.00
64713;BME280;51140;45.340;5.980;2023-02-11T07:34:49;100338.25;;;-3.49;100.00
64713;BME280;51140;45.340;5.980;2023-02-11T07:37:15;100340.09;;;-3.45;100.00
64713;BME280;51140;45.340;5.980;2023-02-11T07:39:40;100341.59;;;-3.50;100.00
64713;BME280;51140;45.340;5.980;2023-02-11T07:42:05;100331.84;;;-3.60;100.00
64713;BME280;51140;45.340;5.980;2023-02-11T07:44:31;100330.47;;;-3.52;100.00
64713;BME280;51140;45.340;5.980;2023-02-11T07:46:58;100326.25;;;-3.52;100.00
64713;BME280;51140;45.340;5.980;2023-02-11T07:49:23;100319.19;;;-3.59;100.00
64713;BME280;51140;45.340;5.980;2023-02-11T07:51:49;100317.63;;;-3.55;100.00
64713;BME280;51140;45.340;5.980;2023-02-11T07:54:16;100320.00;;;-3.37;100.00
64713;BME280;51140;45.340;5.980;2023-02-11T07:56:41;100315.84;;;-3.35;100.00
64713;BME280;51140;45.340;5.980;2023-02-11T07:59:07;100317.47;;;-3.37;100.00
64713;BME280;51140;45.340;5.980;2023-02-11T08:01:32;100311.16;;;-3.47;100.00
64713;BME280;51140;45.340;5.980;2023-02-11T08:03:58;100317.16;;;-3.45;100.00
64713;BME280;51140;45.340;5.980;2023-02-11T08:06:26;100313.75;;;-3.45;100.00
64713;BME280;51140;45.340;5.980;2023-02-11T08:08:53;100308.41;;;-3.52;100.00
64713;BME280;51140;45.340;5.980;2023-02-11T08:11:24;100307.66;;;-3.49;100.00
64713;BME280;51140;45.340;5.980;2023-02-11T08:13:50;100313.13;;;-3.40;100.00
64713;BME280;51140;45.340;5.980;2023-02-11T08:16:24;100305.88;;;-3.29;100.00
64713;BME280;51140;45.340;5.980;2023-02-11T08:18:51;100299.25;;;-3.24;100.00
64713;BME280;51140;45.340;5.980;2023-02-11T08:21:18;100300.03;;;-3.27;100.00
64713;BME280;51140;45.340;5.980;2023-02-11T08:23:44;100295.25;;;-3.19;100.00
64713;BME280;51140;45.340;5.980;2023-02-11T08:26:18;100290.34;;;-3.13;100.00
64713;BME280;51140;45.340;5.980;2023-02-11T08:28:45;100283.25;;;-2.98;100.00
64713;BME280;51140;45.340;5.980;2023-02-11T08:31:13;100294.53;;;-2.91;100.00
64713;BME280;51140;45.340;5.980;2023-02-11T08:33:38;100275.13;;;-2.88;100.00
64713;BME280;51140;45.340;5.980;2023-02-11T08:36:19;100190.31;;;-2.82;100.00
64713;BME280;51140;45.340;5.980;2023-02-11T08:38:45;100213.56;;;-2.74;100.00
64713;BME280;51140;45.340;5.980;2023-02-11T08:41:11;100215.38;;;-2.70;100.00
64713;BME280;51140;45.340;5.980;2023-02-11T08:43:39;100221.72;;;-2.83;100.00
64713;BME280;51140;45.340;5.980;2023-02-11T08:46:06;100216.88;;;-2.77;100.00
64713;BME280;51140;45.340;5.980;2023-02-11T08:48:32;100211.97;;;-2.71;100.00
64713;BME280;51140;45.340;5.980;2023-02-11T08:50:58;100207.06;;;-2.65;100.00
64713;BME280;51140;45.340;5.980;2023-02-11T08:53:23;100213.28;;;-2.57;100.00
64713;BME280;51140;45.340;5.980;2023-02-11T08:55:53;100214.22;;;-2.55;100.00
64713;BME280;51140;45.340;5.980;2023-02-11T08:58:20;100209.56;;;-2.66;100.00
64713;BME280;51140;45.340;5.980;2023-02-11T09:00:47;100198.66;;;-2.62;100.00
64713;BME280;51140;45.340;5.980;2023-02-11T09:03:13;100193.66;;;-2.59;100.00
64713;BME280;51140;45.340;5.980;2023-02-11T09:05:44;100174.25;;;-2.54;100.00
64713;BME280;51140;45.340;5.980;2023-02-11T09:08:10;100171.19;;;-2.44;100.00
64713;BME280;51140;45.340;5.980;2023-02-11T09:10:36;100162.84;;;-2.40;100.00
64713;BME280;51140;45.340;5.980;2023-02-11T09:13:01;100169.09;;;-2.30;100.00
64713;BME280;51140;45.340;5.980;2023-02-11T09:15:27;100156.41;;;-2.27;100.00
64713;BME280;51140;45.340;5.980;2023-02-11T09:17:52;100137.09;;;-2.19;100.00
64713;BME280;51140;45.340;5.980;2023-02-11T09:20:18;100119.50;;;-2.10;100.00
64713;BME280;51140;45.340;5.980;2023-02-11T09:22:43;100118.00;;;-2.03;100.00
64713;BME280;51140;45.340;5.980;2023-02-11T09:25:09;100112.97;;;-2.00;100.00
64713;BME280;51140;45.340;5.980;2023-02-11T09:27:35;100107.00;;;-2.01;100.00
64713;BME280;51140;45.340;5.980;2023-02-11T09:30:00;100099.59;;;-1.93;100.00
64713;BME280;51140;45.340;5.980;2023-02-11T09:32:26;100095.53;;;-1.86;100.00
64713;BME280;51140;45.340;5.980;2023-02-11T09:34:51;100091.53;;;-1.77;100.00
64713;BME280;51140;45.340;5.980;2023-02-11T09:37:17;100089.03;;;-1.75;100.00
64713;BME280;51140;45.340;5.980;2023-02-11T09:39:42;100087.47;;;-1.70;100.00
64713;BME280;51140;45.340;5.980;2023-02-11T09:45:00;100072.47;;;-1.60;100.00
64713;BME280;51140;45.340;5.980;2023-02-11T09:47:32;100067.78;;;-1.43;100.00
64713;BME280;51140;45.340;5.980;2023-02-11T09:50:32;100056.50;;;-1.19;100.00
64713;BME280;51140;45.340;5.980;2023-02-11T09:53:16;100021.94;;;-1.04;100.00
64713;BME280;51140;45.340;5.980;2023-02-11T09:55:46;100009.56;;;-0.85;100.00
64713;BME280;51140;45.340;5.980;2023-02-11T09:58:15;99993.09;;;-0.60;100.00
64713;BME280;51140;45.340;5.980;2023-02-11T10:00:46;99983.28;;;-0.41;100.00
64713;BME280;51140;45.340;5.980;2023-02-11T10:05:59;99954.00;;;-0.13;100.00
64713;BME280;51140;45.340;5.980;2023-02-11T10:13:59;99883.75;;;1.32;100.00
64713;BME280;51140;45.340;5.980;2023-02-11T10:24:50;99661.38;;;4.70;100.00
64713;BME280;51140;45.340;5.980;2023-02-11T10:27:20;99661.06;;;5.35;100.00
64713;BME280;51140;45.340;5.980;2023-02-11T10:29:55;99677.19;;;5.70;100.00
64713;BME280;51140;45.340;5.980;2023-02-11T10:32:46;99687.47;;;5.76;100.00
64713;BME280;51140;45.340;5.980;2023-02-11T10:35:17;99722.56;;;6.13;100.00
64713;BME280;51140;45.340;5.980;2023-02-11T10:37:43;99754.13;;;6.52;100.00
64713;BME280;51140;45.340;5.980;2023-02-11T10:40:26;99788.47;;;6.68;100.00
64713;BME280;51140;45.340;5.980;2023-02-11T10:42:54;99819.44;;;6.83;100.00
64713;BME280;51140;45.340;5.980;2023-02-11T10:45:32;99895.31;;;6.93;100.00
64713;BME280;51140;45.340;5.980;2023-02-11T10:53:32;99840.53;;;6.36;100.00
64713;BME280;51140;45.340;5.980;2023-02-11T10:55:58;99812.50;;;6.85;100.00
64713;BME280;51140;45.340;5.980;2023-02-11T10:58:43;99822.25;;;6.55;100.00
64713;BME280;51140;45.340;5.980;2023-02-11T11:01:09;99860.13;;;6.69;100.00
64713;BME280;51140;45.340;5.980;2023-02-11T11:03:38;99884.44;;;6.52;100.00
64713;BME280;51140;45.340;5.980;2023-02-11T11:06:10;99897.50;;;6.33;100.00
64713;BME280;51140;45.340;5.980;2023-02-11T11:11:06;99868.22;;;6.23;100.00
64713;BME280;51140;45.340;5.980;2023-02-11T11:13:57;99851.13;;;6.05;100.00
64713;BME280;51140;45.340;5.980;2023-02-11T11:16:34;99800.44;;;5.69;100.00
64713;BME280;51140;45.340;5.980;2023-02-11T11:21:47;99776.34;;;5.62;100.00
64713;BME280;51140;45.340;5.980;2023-02-11T11:24:28;99798.69;;;5.71;100.00
64713;BME280;51140;45.340;5.980;2023-02-11T11:26:59;99771.88;;;5.86;100.00
64713;BME280;51140;45.340;5.980;2023-02-11T11:29:37;99775.25;;;5.98;100.00
64713;BME280;51140;45.340;5.980;2023-02-11T11:34:49;99800.94;;;6.24;100.00
64713;BME280;51140;45.340;5.980;2023-02-11T11:37:25;99809.44;;;6.39;100.00
64713;BME280;51140;45.340;5.980;2023-02-11T11:42:30;99842.13;;;6.53;100.00
64713;BME280;51140;45.340;5.980;2023-02-11T11:45:19;99842.00;;;6.67;100.00
64713;BME280;51140;45.340;5.980;2023-02-11T11:48:11;99859.25;;;6.68;100.00
64713;BME280;51140;45.340;5.980;2023-02-11T11:50:44;99847.72;;;7.01;100.00
64713;BME280;51140;45.340;5.980;2023-02-11T11:56:13;99846.38;;;7.46;100.00
64713;BME280;51140;45.340;5.980;2023-02-11T11:58:40;99849.63;;;7.64;100.00
64713;BME280;51140;45.340;5.980;2023-02-11T12:06:45;99929.06;;;8.40;100.00
64713;BME280;51140;45.340;5.980;2023-02-11T12:20:20;100086.31;;;9.25;100.00
64713;BME280;51140;45.340;5.980;2023-02-11T12:23:20;100085.72;;;10.11;100.00
64713;BME280;51140;45.340;5.980;2023-02-11T12:33:43;100110.66;;;11.46;100.00
64713;BME280;51140;45.340;5.980;2023-02-11T12:44:58;100157.72;;;12.14;100.00
64713;BME280;51140;45.340;5.980;2023-02-11T12:47:59;100147.03;;;12.23;100.00
64713;BME280;51140;45.340;5.980;2023-02-11T12:56:18;100128.75;;;12.54;100.00
64713;BME280;51140;45.340;5.980;2023-02-11T12:58:45;100106.41;;;10.19;100.00
64713;BME280;51140;45.340;5.980;2023-02-11T13:01:22;100011.03;;;9.16;100.00
64713;BME280;51140;45.340;5.980;2023-02-11T13:03:54;100001.22;;;8.78;100.00
64713;BME280;51140;45.340;5.980;2023-02-11T13:06:28;99940.16;;;8.53;100.00
64713;BME280;51140;45.340;5.980;2023-02-11T13:09:00;99898.75;;;8.40;100.00
64713;BME280;51140;45.340;5.980;2023-02-11T13:11:31;99870.03;;;8.51;100.00
64713;BME280;51140;45.340;5.980;2023-02-11T13:14:04;99871.94;;;8.41;100.00
64713;BME280;51140;45.340;5.980;2023-02-11T13:16:43;99844.25;;;8.39;100.00
64713;BME280;51140;45.340;5.980;2023-02-11T13:24:30;99925.69;;;8.32;100.00
64713;BME280;51140;45.340;5.980;2023-02-11T13:30:21;99951.03;;;8.13;100.00
64713;BME280;51140;45.340;5.980;2023-02-11T13:33:30;99928.38;;;8.26;100.00
64713;BME280;51140;45.340;5.980;2023-02-11T13:38:27;99894.34;;;8.47;100.00
64713;BME280;51140;45.340;5.980;2023-02-11T13:41:27;99878.69;;;8.52;100.00
64713;BME280;51140;45.340;5.980;2023-02-11T13:46:28;99900.31;;;8.52;100.00
64713;BME280;51140;45.340;5.980;2023-02-11T13:48:54;99915.13;;;8.47;100.00
64713;BME280;51140;45.340;5.980;2023-02-11T13:51:41;99923.88;;;8.41;100.00
64713;BME280;51140;45.340;5.980;2023-02-11T13:54:07;99859.50;;;8.60;100.00
64713;BME280;51140;45.340;5.980;2023-02-11T13:56:44;99885.41;;;8.65;100.00
64713;BME280;51140;45.340;5.980;2023-02-11T14:15:47;99897.47;;;8.67;100.00
64713;BME280;51140;45.340;5.980;2023-02-11T14:21:36;99893.03;;;8.74;100.00
64713;BME280;51140;45.340;5.980;2023-02-11T14:40:30;99925.97;;;8.72;100.00
64713;BME280;51140;45.340;5.980;2023-02-11T14:43:05;99933.06;;;8.62;100.00
64713;BME280;51140;45.340;5.980;2023-02-11T14:45:36;99915.59;;;8.70;100.00
64713;BME280;51140;45.340;5.980;2023-02-11T14:48:06;99905.16;;;8.73;100.00
64713;BME280;51140;45.340;5.980;2023-02-11T14:53:04;99880.22;;;8.63;100.00
64713;BME280;51140;45.340;5.980;2023-02-11T14:55:34;99901.06;;;8.60;100.00
64713;BME280;51140;45.340;5.980;2023-02-11T14:58:16;99890.69;;;8.59;100.00
64713;BME280;51140;45.340;5.980;2023-02-11T15:00:56;99870.59;;;8.68;100.00
64713;BME280;51140;45.340;5.980;2023-02-11T15:03:46;99870.72;;;8.62;100.00
64713;BME280;51140;45.340;5.980;2023-02-11T15:06:17;99881.03;;;8.67;100.00
64713;BME280;51140;45.340;5.980;2023-02-11T15:11:26;99874.41;;;8.49;100.00
64713;BME280;51140;45.340;5.980;2023-02-11T15:13:52;99871.78;;;8.51;100.00
64713;BME280;51140;45.340;5.980;2023-02-11T15:16:21;99884.06;;;8.41;100.00
64713;BME280;51140;45.340;5.980;2023-02-11T15:18:50;99902.28;;;8.36;100.00
64713;BME280;51140;45.340;5.980;2023-02-11T15:21:25;99883.16;;;8.40;100.00
64713;BME280;51140;45.340;5.980;2023-02-11T15:24:03;99894.44;;;8.41;100.00
64713;BME280;51140;45.340;5.980;2023-02-11T15:26:31;99859.69;;;8.48;100.00